Main page
METAR-TAF:

METAR-TAF

Airports :

Hévíz, Hungary

Hévíz–Balaton Airport

latitude: 46-41-11N, longitude: 017-09-33E, elevation: 124 m

Current weather observation

The report was made 47 minutes ago, at 13:45 UTC
Wind 6 kt from the East
Temperature 24°C
Humidity 36%
Pressure 1023 hPa
Visibility 10 km or more
no clouds below 1500 m and no cumulonimbus

METAR: LHSM 281345Z 09006KT CAVOK 24/08 Q1023 NOSIG

Time: 16:32 (14:32 UTC)

Forecast

The report was made 3 hours and 17 minutes ago, at 11:15 UTC
Forecast valid from 28 at 12 UTC to 28 at 21 UTC
Wind 5 kt from the East/Northeast
Visibility 10 km or more
no clouds below 1500 m and no cumulonimbus

TAF: LHSM 281115Z 2812/2821 06005KT CAVOK

Weather observations and forecasts of more than 4000 airports (METAR and TAF reports).

The available stations are represented by yellow and red dots on the map.

Hover mouse over dot to see the name of the station.

Then click to see weather observations and forecasts.

To change the map : click on the green buttons with a black cross to zoom in, on the green button with a dash to zoom out, or on the green arrows for adjacent maps.


METAR-TAF: